createdAt,value
2019-06-26T00:00:51.589Z,43.20
2019-06-26T00:01:51.605Z,44.50
2019-06-26T00:02:51.558Z,43.80
2019-06-26T00:03:51.626Z,44.70
2019-06-26T00:04:51.527Z,44.80
2019-06-26T00:05:51.513Z,47.70
2019-06-26T00:06:51.542Z,45.60
2019-06-26T00:07:51.478Z,46.30
2019-06-26T00:08:51.549Z,48.00
2019-06-26T00:09:51.448Z,45.80
2019-06-26T00:10:51.429Z,47.50
2019-06-26T00:11:51.417Z,47.80
2019-06-26T00:12:51.478Z,44.00
2019-06-26T00:13:51.388Z,46.70
2019-06-26T00:14:51.386Z,45.80
2019-06-26T00:15:51.363Z,45.30
2019-06-26T00:16:51.397Z,45.90
2019-06-26T00:17:51.319Z,45.00
2019-06-26T00:18:51.422Z,44.30
2019-06-26T00:19:51.295Z,45.00
2019-06-26T00:20:51.327Z,43.60
2019-06-26T00:21:51.269Z,45.90
2019-06-26T00:22:51.339Z,43.00
2019-06-26T00:23:51.232Z,42.60
2019-06-26T00:24:51.246Z,44.30
2019-06-26T00:25:51.191Z,45.30
2019-06-26T00:26:51.176Z,42.00
2019-06-26T00:27:51.269Z,42.60
2019-06-26T00:28:51.152Z,43.40
2019-06-26T00:29:51.188Z,44.40
2019-06-26T00:30:51.123Z,42.30
2019-06-26T00:31:51.095Z,42.90
2019-06-26T00:32:51.195Z,42.60
2019-06-26T00:33:51.069Z,42.80
2019-06-26T00:34:51.098Z,43.00
2019-06-26T00:35:51.026Z,40.60
2019-06-26T00:36:51.015Z,43.50
2019-06-26T00:37:50.995Z,44.40
2019-06-26T00:38:51.028Z,43.60
2019-06-26T00:39:51.167Z,43.80
2019-06-26T00:40:51.039Z,42.60
2019-06-26T00:41:50.943Z,40.70
2019-06-26T00:42:50.997Z,41.40
2019-06-26T00:43:50.949Z,38.90
2019-06-26T00:44:50.891Z,38.60
2019-06-26T00:45:50.974Z,36.30
2019-06-26T00:46:50.864Z,36.40
2019-06-26T00:47:50.837Z,35.70
2019-06-26T00:48:50.879Z,34.00
2019-06-26T00:49:50.806Z,33.10
2019-06-26T00:50:50.897Z,32.40
2019-06-26T00:51:50.776Z,32.10
2019-06-26T00:52:50.770Z,30.10
2019-06-26T00:53:50.737Z,29.90
2019-06-26T00:54:50.819Z,28.90
2019-06-26T00:55:50.707Z,30.30
2019-06-26T00:56:50.750Z,28.10
2019-06-26T00:57:50.687Z,31.30
2019-06-26T00:58:50.737Z,30.30
2019-06-26T00:59:50.648Z,31.10
2019-06-26T01:00:50.647Z,29.30
2019-06-26T01:01:50.611Z,28.90
2019-06-26T01:02:50.670Z,30.90
2019-06-26T01:03:50.577Z,28.80
2019-06-26T01:04:50.680Z,30.80
2019-06-26T01:05:50.547Z,29.50
2019-06-26T01:06:50.660Z,31.10
2019-06-26T01:07:50.525Z,29.10
2019-06-26T01:08:50.497Z,29.40
2019-06-26T01:09:50.498Z,28.40
2019-06-26T01:10:50.473Z,27.90
2019-06-26T01:11:50.509Z,30.30
2019-06-26T01:12:50.442Z,29.50
2019-06-26T01:13:58.050Z,29.00
2019-06-26T01:14:50.398Z,30.00
2019-06-26T01:15:50.436Z,31.00
2019-06-26T01:16:50.366Z,31.10
2019-06-26T01:17:50.446Z,31.60
2019-06-26T01:18:50.328Z,29.70
2019-06-26T01:19:50.355Z,30.00
2019-06-26T01:20:50.327Z,29.90
2019-06-26T01:21:50.366Z,32.60
2019-06-26T01:22:50.266Z,33.20
2019-06-26T01:23:50.275Z,34.00
2019-06-26T01:24:50.227Z,35.60
2019-06-26T01:25:50.296Z,35.70
2019-06-26T01:26:50.210Z,33.40
2019-06-26T01:27:50.207Z,33.80
2019-06-26T01:28:50.175Z,35.40
2019-06-26T01:29:50.156Z,35.80
2019-06-26T01:30:50.224Z,37.10
2019-06-26T01:31:50.127Z,36.60
2019-06-26T01:32:50.141Z,36.50
2019-06-26T01:33:50.092Z,37.00
2019-06-26T01:34:50.055Z,38.50
2019-06-26T01:35:50.046Z,38.60
2019-06-26T01:36:50.056Z,36.50
2019-06-26T01:37:50.016Z,36.40
2019-06-26T01:38:50.070Z,36.30
2019-06-26T01:39:49.988Z,35.60
2019-06-26T01:40:49.978Z,36.50
2019-06-26T01:41:49.946Z,38.60
2019-06-26T01:42:49.988Z,37.20
2019-06-26T01:43:49.914Z,34.30
2019-06-26T01:44:49.994Z,34.40
2019-06-26T01:45:49.893Z,35.70
2019-06-26T01:46:49.905Z,35.50
2019-06-26T01:47:49.845Z,36.80
2019-06-26T01:48:49.925Z,36.90
2019-06-26T01:49:49.835Z,35.70
2019-06-26T01:50:49.795Z,37.10
2019-06-26T01:51:49.865Z,35.10
2019-06-26T01:52:49.768Z,35.20
2019-06-26T01:53:49.858Z,36.10
2019-06-26T01:54:49.726Z,36.80
2019-06-26T01:55:49.720Z,37.30
2019-06-26T01:56:49.702Z,36.40
2019-06-26T01:57:49.777Z,38.20
2019-06-26T01:58:49.658Z,35.80
2019-06-26T01:59:49.686Z,36.40
2019-06-26T02:00:49.626Z,37.20
2019-06-26T02:01:49.700Z,37.80
2019-06-26T02:02:49.603Z,37.80
2019-06-26T02:03:49.605Z,38.40
2019-06-26T02:04:49.578Z,37.60
2019-06-26T02:05:49.626Z,39.00
2019-06-26T02:06:49.539Z,37.70
2019-06-26T02:07:49.537Z,37.80
2019-06-26T02:08:49.498Z,37.70
2019-06-26T02:09:49.549Z,39.00
2019-06-26T02:10:49.535Z,39.30
2019-06-26T02:11:49.446Z,39.60
2019-06-26T02:12:49.432Z,39.60
2019-06-26T02:13:49.468Z,40.20
2019-06-26T02:14:49.385Z,41.20
2019-06-26T02:15:49.479Z,40.10
2019-06-26T02:16:49.358Z,38.80
2019-06-26T02:17:49.386Z,38.60
2019-06-26T02:18:49.379Z,40.70
2019-06-26T02:19:49.583Z,41.00
2019-06-26T02:20:49.286Z,40.40
2019-06-26T02:21:49.268Z,40.80
2019-06-26T02:22:49.726Z,39.50
2019-06-26T02:23:49.326Z,40.20
2019-06-26T02:24:49.216Z,40.20
2019-06-26T02:25:49.237Z,40.70
2019-06-26T02:26:49.177Z,39.20
2019-06-26T02:27:49.247Z,40.40
2019-06-26T02:28:49.148Z,39.50
2019-06-26T02:29:49.290Z,39.70
2019-06-26T02:30:49.131Z,39.70
2019-06-26T02:31:49.166Z,40.10
2019-06-26T02:32:49.187Z,40.50
2019-06-26T02:33:49.067Z,39.40
2019-06-26T02:34:49.146Z,40.30
2019-06-26T02:35:49.045Z,40.30
2019-06-26T02:36:49.096Z,39.00
2019-06-26T02:37:48.985Z,41.20
2019-06-26T02:38:48.979Z,40.30
2019-06-26T02:39:49.014Z,40.30
2019-06-26T02:40:48.936Z,41.00
2019-06-26T02:41:49.033Z,41.10
2019-06-26T02:42:48.925Z,40.70
2019-06-26T02:43:48.894Z,39.70
2019-06-26T02:44:53.940Z,40.50
2019-06-26T02:45:48.869Z,39.60
2019-06-26T02:46:48.990Z,40.60
2019-06-26T02:47:48.861Z,40.40
2019-06-26T02:48:48.806Z,39.60
2019-06-26T02:49:48.880Z,39.70
2019-06-26T02:50:48.759Z,40.60
2019-06-26T02:51:48.798Z,39.40
2019-06-26T02:52:48.726Z,38.70
2019-06-26T02:53:48.709Z,39.80
2019-06-26T02:54:48.801Z,41.20
2019-06-26T02:55:48.674Z,40.60
2019-06-26T02:56:48.715Z,40.90
2019-06-26T02:57:48.637Z,41.10
2019-06-26T02:58:48.622Z,41.00
2019-06-26T02:59:48.607Z,40.20
2019-06-26T03:00:48.634Z,40.80
2019-06-26T03:01:48.586Z,40.50
2019-06-26T03:02:48.646Z,41.20
2019-06-26T03:03:48.575Z,42.20
2019-06-26T03:04:48.573Z,40.20
2019-06-26T03:05:48.565Z,41.40
2019-06-26T03:06:48.475Z,40.90
2019-06-26T03:07:48.476Z,39.60
2019-06-26T03:08:48.450Z,40.50
2019-06-26T03:09:48.487Z,40.50
2019-06-26T03:10:48.405Z,41.70
2019-06-26T03:11:48.498Z,43.30
2019-06-26T03:12:48.363Z,42.50
2019-06-26T03:13:48.411Z,42.80
2019-06-26T03:14:48.324Z,44.50
2019-06-26T03:15:50.672Z,43.00
2019-06-26T03:16:48.294Z,46.20
2019-06-26T03:17:55.469Z,45.20
2019-06-26T03:18:48.264Z,47.10
2019-06-26T03:19:48.235Z,47.20
2019-06-26T03:20:48.235Z,47.30
2019-06-26T03:21:48.263Z,49.10
2019-06-26T03:22:48.185Z,49.60
2019-06-26T03:23:48.268Z,49.70
2019-06-26T03:24:48.167Z,49.30
2019-06-26T03:25:48.136Z,49.10
2019-06-26T03:26:48.185Z,49.50
2019-06-26T03:27:48.099Z,50.50
2019-06-26T03:28:48.084Z,50.40
2019-06-26T03:29:48.067Z,50.50
2019-06-26T03:30:48.105Z,50.30
2019-06-26T03:31:48.016Z,51.50
2019-06-26T03:32:48.015Z,51.10
2019-06-26T03:33:48.086Z,50.00
2019-06-26T03:34:48.023Z,53.10
2019-06-26T03:35:47.947Z,52.10
2019-06-26T03:36:48.035Z,51.80
2019-06-26T03:37:47.916Z,51.50
2019-06-26T03:38:47.948Z,51.90
2019-06-26T03:39:47.874Z,51.90
2019-06-26T03:40:47.860Z,53.20
2019-06-26T03:41:47.838Z,52.30
2019-06-26T03:42:47.918Z,53.50
2019-06-26T03:43:47.811Z,53.70
2019-06-26T03:44:47.885Z,53.50
2019-06-26T03:45:47.848Z,53.40
2019-06-26T03:46:47.747Z,52.00
2019-06-26T03:47:47.805Z,53.10
2019-06-26T03:48:47.707Z,52.60
2019-06-26T03:49:47.706Z,55.30
2019-06-26T03:50:47.667Z,55.60
2019-06-26T03:51:47.799Z,54.80
2019-06-26T03:52:47.635Z,53.80
2019-06-26T03:53:47.635Z,54.70
2019-06-26T03:54:47.595Z,54.90
2019-06-26T03:55:47.645Z,54.70
2019-06-26T03:56:47.576Z,55.20
2019-06-26T03:57:47.555Z,55.10
2019-06-26T03:58:47.523Z,57.10
2019-06-26T03:59:47.565Z,57.10
2019-06-26T04:00:47.486Z,55.00
2019-06-26T04:01:47.466Z,56.40
2019-06-26T04:02:47.455Z,56.40
2019-06-26T04:03:47.485Z,57.00
2019-06-26T04:04:47.419Z,55.40
2019-06-26T04:05:47.512Z,56.30
2019-06-26T04:06:47.409Z,56.50
2019-06-26T04:07:47.357Z,57.10
2019-06-26T04:08:47.415Z,56.20
2019-06-26T04:09:47.326Z,58.20
2019-06-26T04:10:47.328Z,58.20
2019-06-26T04:11:47.287Z,58.10
2019-06-26T04:12:47.346Z,57.00
2019-06-26T04:13:47.245Z,56.40
2019-06-26T04:14:47.261Z,58.10
2019-06-26T04:15:50.056Z,58.40
2019-06-26T04:16:47.266Z,58.50
2019-06-26T04:17:47.174Z,58.80
2019-06-26T04:18:47.176Z,59.00
2019-06-26T04:19:47.137Z,60.20
2019-06-26T04:20:47.274Z,58.30
2019-06-26T04:21:47.107Z,59.90
2019-06-26T04:22:47.747Z,60.30
2019-06-26T04:23:47.071Z,60.70
2019-06-26T04:24:47.105Z,60.40
2019-06-26T04:25:47.017Z,60.40
2019-06-26T04:26:47.016Z,61.00
2019-06-26T04:27:47.029Z,60.40
2019-06-26T04:28:46.967Z,60.80
2019-06-26T04:29:47.049Z,61.40
2019-06-26T04:30:46.937Z,61.10
2019-06-26T04:31:46.980Z,61.40
2019-06-26T04:32:46.898Z,62.20
2019-06-26T04:33:46.955Z,65.20
2019-06-26T04:34:46.854Z,62.80
2019-06-26T04:35:46.875Z,63.30
2019-06-26T04:36:46.815Z,63.50
2019-06-26T04:37:46.884Z,66.90
2019-06-26T04:38:46.774Z,64.40
2019-06-26T04:39:46.796Z,65.30
2019-06-26T04:40:46.736Z,66.00
2019-06-26T04:41:46.808Z,67.00
2019-06-26T04:42:46.727Z,64.90
2019-06-26T04:43:46.700Z,66.00
2019-06-26T04:44:46.667Z,64.90
2019-06-26T04:45:57.563Z,65.30
2019-06-26T04:46:46.701Z,65.70
2019-06-26T04:47:46.634Z,66.90
2019-06-26T04:48:46.657Z,66.70
2019-06-26T04:49:46.587Z,67.00
2019-06-26T04:50:46.656Z,66.20
2019-06-26T04:51:46.545Z,67.20
2019-06-26T04:52:46.568Z,68.50
2019-06-26T04:53:46.495Z,67.70
2019-06-26T04:54:46.587Z,68.20
2019-06-26T04:55:46.455Z,69.20
2019-06-26T04:56:46.484Z,66.60
2019-06-26T04:57:46.413Z,68.00
2019-06-26T04:58:46.549Z,67.50
2019-06-26T04:59:46.408Z,69.70
2019-06-26T05:00:46.440Z,69.40
2019-06-26T05:01:46.344Z,70.70
2019-06-26T05:02:46.430Z,69.90
2019-06-26T05:03:46.309Z,70.30
2019-06-26T05:04:46.293Z,72.60
2019-06-26T05:05:46.356Z,70.30
2019-06-26T05:06:46.247Z,69.60
2019-06-26T05:07:46.252Z,72.60
2019-06-26T05:08:46.206Z,70.90
2019-06-26T05:09:46.183Z,68.60
2019-06-26T05:10:46.174Z,69.60
2019-06-26T05:11:46.175Z,70.00
2019-06-26T05:12:46.137Z,71.50
2019-06-26T05:13:46.190Z,71.30
2019-06-26T05:14:46.098Z,70.60
2019-06-26T05:15:46.099Z,72.70
2019-06-26T05:16:46.056Z,71.90
2019-06-26T05:17:46.113Z,74.70
2019-06-26T05:18:46.018Z,72.50
2019-06-26T05:19:46.013Z,75.20
2019-06-26T05:20:45.995Z,73.00
2019-06-26T05:21:46.037Z,69.60
2019-06-26T05:22:45.956Z,70.20
2019-06-26T05:23:45.944Z,71.80
2019-06-26T05:24:46.599Z,72.40
2019-06-26T05:25:45.901Z,72.30
2019-06-26T05:26:45.961Z,74.40
2019-06-26T05:27:45.861Z,75.50
2019-06-26T05:28:45.881Z,74.60
2019-06-26T05:29:45.817Z,74.90
2019-06-26T05:30:45.799Z,76.90
2019-06-26T05:31:45.787Z,75.50
2019-06-26T05:32:45.886Z,78.70
2019-06-26T05:33:45.757Z,77.80
2019-06-26T05:34:45.818Z,78.90
2019-06-26T05:35:45.707Z,76.50
2019-06-26T05:36:45.728Z,79.10
2019-06-26T05:37:45.677Z,76.60
2019-06-26T05:38:45.813Z,77.60
2019-06-26T05:39:45.636Z,78.70
2019-06-26T05:40:45.646Z,75.70
2019-06-26T05:41:45.645Z,77.70
2019-06-26T05:42:45.661Z,80.60
2019-06-26T05:43:45.558Z,76.20
2019-06-26T05:44:45.567Z,77.60
2019-06-26T05:45:45.537Z,75.80
2019-06-26T05:46:45.497Z,78.10
2019-06-26T05:47:45.475Z,78.30
2019-06-26T05:48:45.521Z,78.90
2019-06-26T05:49:45.442Z,79.40
2019-06-26T05:50:45.495Z,79.30
2019-06-26T05:51:45.506Z,79.50
2019-06-26T05:52:45.386Z,77.50
2019-06-26T05:53:45.418Z,81.20
2019-06-26T05:54:45.361Z,82.10
2019-06-26T05:55:45.428Z,82.60
2019-06-26T05:56:45.641Z,83.50
2019-06-26T05:57:48.444Z,82.80
2019-06-26T05:58:45.277Z,78.90
2019-06-26T05:59:45.459Z,79.40
2019-06-26T06:00:45.237Z,81.30
2019-06-26T06:01:45.380Z,78.10
2019-06-26T06:02:45.228Z,77.20
2019-06-26T06:03:45.375Z,79.70
2019-06-26T06:04:45.165Z,78.40
2019-06-26T06:05:45.286Z,78.40
2019-06-26T06:06:45.124Z,80.60
2019-06-26T06:07:45.115Z,82.30
2019-06-26T06:08:45.105Z,81.70
2019-06-26T06:09:45.114Z,82.00
2019-06-26T06:10:45.054Z,83.20
2019-06-26T06:11:45.124Z,79.60
2019-06-26T06:12:45.135Z,80.10
2019-06-26T06:13:44.994Z,79.60
2019-06-26T06:14:45.045Z,78.60
2019-06-26T06:15:44.969Z,80.10
2019-06-26T06:16:47.760Z,81.90
2019-06-26T06:17:44.930Z,79.10
2019-06-26T06:18:44.964Z,79.70
2019-06-26T06:19:44.949Z,80.00
2019-06-26T06:20:44.994Z,80.20
2019-06-26T06:21:44.846Z,80.40
2019-06-26T06:22:44.914Z,82.90
2019-06-26T06:23:44.821Z,82.30
2019-06-26T06:24:44.916Z,80.80
2019-06-26T06:25:44.786Z,81.60
2019-06-26T06:26:44.825Z,80.80
2019-06-26T06:27:44.761Z,79.00
2019-06-26T06:28:44.737Z,79.80
2019-06-26T06:29:44.858Z,80.00
2019-06-26T06:30:44.692Z,81.70
2019-06-26T06:31:44.755Z,81.60
2019-06-26T06:32:44.655Z,82.80
2019-06-26T06:33:44.729Z,85.70
2019-06-26T06:34:44.617Z,82.60
2019-06-26T06:35:44.692Z,83.10
2019-06-26T06:36:44.587Z,81.80
2019-06-26T06:37:44.717Z,82.50
2019-06-26T06:38:44.514Z,81.30
2019-06-26T06:39:44.617Z,81.10
2019-06-26T06:40:44.504Z,83.80
2019-06-26T06:41:44.625Z,83.50
2019-06-26T06:42:44.466Z,84.30
2019-06-26T06:43:44.547Z,84.80
2019-06-26T06:44:44.426Z,85.00
2019-06-26T06:45:44.544Z,82.40
2019-06-26T06:46:44.398Z,82.80
2019-06-26T06:47:44.453Z,83.20
2019-06-26T06:48:44.353Z,72.00
2019-06-26T06:49:44.347Z,77.40
2019-06-26T06:50:44.375Z,75.90
2019-06-26T06:51:44.318Z,76.10
2019-06-26T06:52:44.396Z,77.20
2019-06-26T06:53:44.312Z,78.20
2019-06-26T06:54:44.246Z,78.00
2019-06-26T06:55:44.227Z,78.40
2019-06-26T06:56:44.316Z,77.40
2019-06-26T06:57:44.201Z,78.70
2019-06-26T06:58:44.336Z,76.30
2019-06-26T06:59:44.169Z,78.70
2019-06-26T07:00:44.134Z,81.90
2019-06-26T07:01:44.258Z,76.30
2019-06-26T07:02:44.097Z,80.70
2019-06-26T07:03:44.165Z,76.90
2019-06-26T07:04:44.083Z,77.70
2019-06-26T07:05:44.107Z,76.00
2019-06-26T07:06:44.188Z,73.40
2019-06-26T07:07:44.016Z,76.90
2019-06-26T07:08:44.098Z,78.20
2019-06-26T07:09:43.980Z,79.40
2019-06-26T07:10:43.958Z,79.40
2019-06-26T07:11:44.018Z,80.10
2019-06-26T07:12:43.923Z,79.50
2019-06-26T07:13:44.055Z,79.30
2019-06-26T07:14:51.384Z,81.90
2019-06-26T07:16:48.117Z,76.40
2019-06-26T07:17:47.935Z,77.20
2019-06-26T07:19:52.090Z,74.70
2019-06-26T07:20:52.069Z,76.90
2019-06-26T07:22:56.258Z,77.20
2019-06-26T07:23:56.183Z,75.00
2019-06-26T07:26:00.305Z,76.70
2019-06-26T07:27:00.284Z,77.80
2019-06-26T07:29:04.434Z,75.90
2019-06-26T07:30:04.456Z,75.20
2019-06-26T07:32:08.504Z,75.90
2019-06-26T07:33:08.428Z,76.20
2019-06-26T07:35:12.528Z,71.70
2019-06-26T07:36:12.437Z,74.50
2019-06-26T07:38:16.547Z,77.00
2019-06-26T07:39:16.476Z,78.60
2019-06-26T07:41:20.524Z,73.60
2019-06-26T07:42:20.495Z,76.30
2019-06-26T07:44:24.534Z,76.30
2019-06-26T07:45:24.455Z,75.90
2019-06-26T07:47:42.477Z,75.70
2019-06-26T07:48:28.479Z,77.50
2019-06-26T07:50:21.505Z,79.60
2019-06-26T07:51:21.436Z,82.60
2019-06-26T07:53:25.516Z,79.90
2019-06-26T07:54:25.575Z,81.90
2019-06-26T07:56:29.538Z,76.80
2019-06-26T07:57:29.454Z,79.50
2019-06-26T07:59:33.646Z,79.90
2019-06-26T08:00:33.454Z,80.90
2019-06-26T08:02:37.555Z,78.00
2019-06-26T08:03:37.476Z,77.80
2019-06-26T08:05:42.929Z,76.60
2019-06-26T08:06:41.488Z,73.60
2019-06-26T08:08:45.528Z,75.00
2019-06-26T08:09:45.497Z,76.70
2019-06-26T08:11:49.597Z,75.70
2019-06-26T08:12:49.503Z,78.40
2019-06-26T08:14:53.604Z,76.30
2019-06-26T08:15:53.530Z,77.50
2019-06-26T08:18:01.116Z,76.90
2019-06-26T08:18:57.545Z,78.00
2019-06-26T08:21:10.891Z,81.10
2019-06-26T08:21:50.945Z,77.70
2019-06-26T08:23:54.995Z,77.00
2019-06-26T08:24:54.970Z,74.60
2019-06-26T08:26:59.004Z,73.50
2019-06-26T08:27:58.933Z,71.00
2019-06-26T08:30:02.986Z,70.30
2019-06-26T08:31:02.945Z,70.50
2019-06-26T08:33:07.025Z,70.10
2019-06-26T08:34:06.955Z,71.80
2019-06-26T08:36:11.050Z,75.00
2019-06-26T08:37:10.966Z,70.20
2019-06-26T08:39:15.052Z,71.50
2019-06-26T08:40:14.977Z,71.50
2019-06-26T08:42:19.075Z,66.20
2019-06-26T08:43:19.005Z,68.70
2019-06-26T08:45:23.027Z,68.50
2019-06-26T08:46:22.993Z,66.70
2019-06-26T08:48:38.912Z,66.70
2019-06-26T08:49:27.016Z,68.40
2019-06-26T08:51:31.059Z,72.80
2019-06-26T08:52:31.081Z,69.80
2019-06-26T08:54:35.104Z,69.80
2019-06-26T08:55:35.034Z,69.30
2019-06-26T08:57:39.325Z,69.20
2019-06-26T08:58:39.148Z,67.30
2019-06-26T09:00:32.284Z,69.00
2019-06-26T09:01:32.097Z,71.10
2019-06-26T09:03:36.394Z,68.40
2019-06-26T09:04:36.215Z,67.10
2019-06-26T09:06:40.526Z,65.10
2019-06-26T09:07:40.333Z,67.80
2019-06-26T09:09:44.623Z,66.00
2019-06-26T09:10:45.208Z,68.90
2019-06-26T09:12:48.587Z,63.50
2019-06-26T09:13:48.617Z,66.60
2019-06-26T09:15:52.765Z,65.60
2019-06-26T09:16:52.693Z,69.40
2019-06-26T09:18:46.034Z,67.60
2019-06-26T09:19:45.961Z,65.40
2019-06-26T09:21:39.183Z,62.30
2019-06-26T09:22:39.118Z,62.40
2019-06-26T09:24:43.279Z,62.40
2019-06-26T09:25:43.135Z,63.50
2019-06-26T09:27:47.164Z,65.90
2019-06-26T09:28:47.142Z,67.70
2019-06-26T09:30:40.173Z,57.70
2019-06-26T09:31:40.102Z,56.60
2019-06-26T09:33:44.153Z,59.50
2019-06-26T09:34:44.156Z,58.20
2019-06-26T09:36:48.214Z,57.00
2019-06-26T09:37:48.124Z,55.70
2019-06-26T09:38:48.124Z,59.10
2019-06-26T09:39:48.098Z,58.70
2019-06-26T09:40:48.193Z,58.10
2019-06-26T09:41:48.075Z,59.00
2019-06-26T09:42:48.103Z,61.90
2019-06-26T09:43:48.036Z,60.10
2019-06-26T09:44:48.124Z,58.80
2019-06-26T09:45:48.014Z,57.60
2019-06-26T09:46:48.134Z,62.10
2019-06-26T09:47:47.984Z,58.80
2019-06-26T09:48:53.124Z,56.10
2019-06-26T09:49:48.064Z,60.40
2019-06-26T09:50:47.945Z,56.70
2019-06-26T09:51:48.089Z,55.50
2019-06-26T09:52:47.916Z,59.50
2019-06-26T09:53:48.134Z,54.80
2019-06-26T09:54:47.877Z,58.30
2019-06-26T09:55:48.012Z,58.10
2019-06-26T09:56:47.846Z,57.70
2019-06-26T09:57:47.905Z,57.00
2019-06-26T09:58:47.841Z,54.40
2019-06-26T09:59:47.802Z,51.40
2019-06-26T10:00:47.799Z,51.80
2019-06-26T10:01:47.940Z,54.30
2019-06-26T10:02:47.765Z,52.30
2019-06-26T10:03:47.855Z,55.70
2019-06-26T10:04:47.734Z,55.20
2019-06-26T10:05:47.724Z,58.50
2019-06-26T10:06:47.855Z,58.10
2019-06-26T10:07:47.694Z,60.80
2019-06-26T10:08:47.785Z,58.40
2019-06-26T10:09:47.678Z,59.10
2019-06-26T10:10:47.848Z,54.60
2019-06-26T10:11:47.803Z,53.60
2019-06-26T10:12:47.646Z,55.30
2019-06-26T10:13:47.785Z,53.90
2019-06-26T10:14:48.149Z,54.10
2019-06-26T10:15:47.594Z,53.50
2019-06-26T10:16:47.575Z,54.50
2019-06-26T10:17:47.647Z,52.90
2019-06-26T10:18:47.568Z,58.80
2019-06-26T10:19:47.653Z,59.90
2019-06-26T10:20:47.539Z,56.50
2019-06-26T10:21:47.675Z,53.10
2019-06-26T10:22:47.494Z,57.00
2019-06-26T10:23:47.584Z,58.10
2019-06-26T10:24:47.478Z,54.70
2019-06-26T10:25:47.622Z,51.60
2019-06-26T10:26:47.463Z,54.60
2019-06-26T10:27:47.604Z,55.50
2019-06-26T10:28:47.426Z,59.20
2019-06-26T10:29:47.526Z,56.20
2019-06-26T10:30:47.411Z,48.90
2019-06-26T10:31:47.399Z,49.80
2019-06-26T10:32:47.558Z,51.70
2019-06-26T10:33:47.355Z,50.40
2019-06-26T10:34:47.793Z,51.00
2019-06-26T10:35:47.325Z,50.40
2019-06-26T10:36:47.314Z,47.50
2019-06-26T10:37:47.335Z,46.80
2019-06-26T10:38:47.523Z,49.80
2019-06-26T10:39:47.309Z,46.00
2019-06-26T10:40:47.397Z,50.30
2019-06-26T10:41:47.269Z,51.90
2019-06-26T10:42:47.246Z,48.50
2019-06-26T10:43:47.416Z,48.50
2019-06-26T10:44:47.223Z,48.60
2019-06-26T10:45:47.365Z,48.40
2019-06-26T10:46:47.205Z,52.70
2019-06-26T10:47:47.186Z,53.90
2019-06-26T10:48:47.346Z,52.10
2019-06-26T10:49:47.154Z,51.80
2019-06-26T10:50:51.023Z,51.30
2019-06-26T10:51:47.162Z,52.30
2019-06-26T10:52:47.125Z,53.30
2019-06-26T10:53:47.119Z,57.10
2019-06-26T10:54:47.352Z,57.10
2019-06-26T10:55:47.137Z,55.70
2019-06-26T10:56:47.205Z,51.50
2019-06-26T10:57:47.112Z,54.70
2019-06-26T10:58:47.068Z,57.90
2019-06-26T10:59:47.126Z,54.40
2019-06-26T11:00:47.035Z,57.50
2019-06-26T11:01:47.036Z,52.50
2019-06-26T11:02:47.006Z,53.30
2019-06-26T11:03:47.046Z,51.80
2019-06-26T11:04:46.994Z,47.80
2019-06-26T11:05:47.065Z,58.70
2019-06-26T11:06:46.965Z,58.10
2019-06-26T11:07:46.977Z,52.70
2019-06-26T11:08:46.946Z,54.80
2019-06-26T11:09:46.986Z,55.80
2019-06-26T11:10:46.944Z,54.30
2019-06-26T11:11:47.020Z,53.70
2019-06-26T11:12:49.092Z,56.70
2019-06-26T11:13:46.884Z,52.90
2019-06-26T11:14:46.945Z,61.40
2019-06-26T11:15:46.856Z,54.60
2019-06-26T11:16:46.939Z,52.60
2019-06-26T11:17:46.847Z,52.00
2019-06-26T11:18:46.825Z,52.20
2019-06-26T11:19:46.904Z,56.40
2019-06-26T11:20:46.807Z,51.50
2019-06-26T11:21:46.874Z,50.50
2019-06-26T11:22:46.799Z,47.70
2019-06-26T11:23:46.775Z,48.90
2019-06-26T11:24:46.809Z,46.90
2019-06-26T11:25:46.809Z,50.50
2019-06-26T11:26:46.762Z,49.00
2019-06-26T11:27:46.807Z,49.80
2019-06-26T11:28:46.740Z,42.20
2019-06-26T11:29:46.824Z,41.90
2019-06-26T11:30:46.697Z,47.10
2019-06-26T11:31:46.780Z,43.40
2019-06-26T11:32:46.675Z,43.30
2019-06-26T11:33:46.759Z,48.00
2019-06-26T11:34:46.765Z,46.80
2019-06-26T11:35:46.646Z,43.30
2019-06-26T11:37:02.652Z,43.00
2019-06-26T11:37:46.625Z,47.20
2019-06-26T11:38:46.686Z,45.30
2019-06-26T11:39:46.696Z,43.30
2019-06-26T11:40:46.597Z,47.10
2019-06-26T11:41:46.604Z,43.60
2019-06-26T11:42:46.593Z,41.10
2019-06-26T11:43:46.618Z,37.90
2019-06-26T11:44:46.626Z,37.80
2019-06-26T11:45:46.557Z,38.40
2019-06-26T11:46:46.636Z,38.60
2019-06-26T11:47:46.525Z,35.90
2019-06-26T11:48:46.566Z,37.80
2019-06-26T11:49:59.292Z,38.90
2019-06-26T11:50:46.501Z,41.70
2019-06-26T11:51:46.577Z,40.60
2019-06-26T11:52:46.476Z,46.60
2019-06-26T11:53:46.486Z,44.00
2019-06-26T11:55:01.392Z,36.60
2019-06-26T11:55:46.449Z,36.20
2019-06-26T11:56:46.518Z,36.80
2019-06-26T11:57:46.451Z,36.80
2019-06-26T11:58:46.515Z,38.00
2019-06-26T11:59:46.412Z,38.20
2019-06-26T12:00:46.398Z,38.50
2019-06-26T12:01:46.438Z,38.60
2019-06-26T12:02:46.367Z,38.20
2019-06-26T12:03:46.457Z,37.50
2019-06-26T12:04:46.368Z,38.10
2019-06-26T12:05:46.346Z,39.40
2019-06-26T12:06:46.478Z,38.00
2019-06-26T12:07:46.375Z,38.80
2019-06-26T12:08:46.315Z,39.50
2019-06-26T12:09:46.474Z,36.30
2019-06-26T12:10:46.308Z,34.80
2019-06-26T12:11:46.305Z,32.80
2019-06-26T12:12:46.289Z,32.20
2019-06-26T12:13:46.338Z,33.00
2019-06-26T12:14:46.271Z,35.10
2019-06-26T12:15:46.347Z,41.20
2019-06-26T12:16:46.234Z,37.90
2019-06-26T12:17:46.245Z,31.20
2019-06-26T12:18:46.215Z,31.20
2019-06-26T12:19:46.266Z,32.80
2019-06-26T12:20:46.201Z,36.70
2019-06-26T12:21:46.186Z,37.20
2019-06-26T12:22:46.175Z,34.90
2019-06-26T12:23:46.187Z,35.10
2019-06-26T12:24:46.159Z,38.10
2019-06-26T12:25:46.216Z,34.00
2019-06-26T12:26:46.205Z,31.90
2019-06-26T12:27:46.125Z,30.50
2019-06-26T12:28:46.250Z,32.70
2019-06-26T12:29:46.115Z,32.40
2019-06-26T12:30:46.135Z,33.30
2019-06-26T12:31:46.097Z,28.50
2019-06-26T12:33:01.712Z,30.70
2019-06-26T12:33:46.079Z,29.90
2019-06-26T12:34:46.167Z,27.40
2019-06-26T12:35:46.057Z,30.10
2019-06-26T12:36:46.107Z,29.50
2019-06-26T12:37:46.050Z,28.10
2019-06-26T12:38:46.102Z,28.30
2019-06-26T12:39:46.034Z,27.10
2019-06-26T12:40:46.110Z,30.10
2019-06-26T12:41:45.997Z,28.80
2019-06-26T12:42:45.985Z,26.30
2019-06-26T12:43:46.024Z,26.70
2019-06-26T12:44:45.980Z,29.40
2019-06-26T12:45:46.046Z,29.90
2019-06-26T12:46:45.970Z,25.00
2019-06-26T12:47:45.956Z,30.30
2019-06-26T12:48:45.938Z,26.50
2019-06-26T12:49:45.966Z,28.80
2019-06-26T12:50:45.917Z,25.20
2019-06-26T12:51:45.977Z,26.80
2019-06-26T12:52:45.886Z,26.30
2019-06-26T12:53:45.996Z,25.00
2019-06-26T12:54:45.877Z,25.10
2019-06-26T12:55:45.904Z,29.10
2019-06-26T12:56:45.857Z,25.80
2019-06-26T12:57:45.915Z,27.00
2019-06-26T12:58:45.947Z,24.60
2019-06-26T12:59:56.669Z,26.10
2019-06-26T13:00:45.841Z,26.80
2019-06-26T13:01:45.845Z,27.00
2019-06-26T13:02:45.809Z,24.00
2019-06-26T13:03:45.795Z,24.50
2019-06-26T13:04:45.799Z,23.40
2019-06-26T13:05:45.875Z,25.30
2019-06-26T13:06:45.776Z,22.80
2019-06-26T13:07:45.785Z,26.50
2019-06-26T13:08:45.755Z,25.20
2019-06-26T13:09:45.796Z,22.20
2019-06-26T13:10:50.184Z,22.70
2019-06-26T13:11:45.819Z,24.80
2019-06-26T13:12:46.160Z,26.20
2019-06-26T13:14:01.389Z,24.60
2019-06-26T13:14:45.718Z,21.80
2019-06-26T13:15:53.535Z,22.60
2019-06-26T13:17:50.001Z,22.70
2019-06-26T13:18:49.789Z,24.60
2019-06-26T13:20:52.599Z,23.10
2019-06-26T13:21:43.365Z,21.40
2019-06-26T13:23:47.470Z,22.70
2019-06-26T13:24:47.387Z,22.90
2019-06-26T13:26:54.421Z,22.40
2019-06-26T13:27:51.397Z,22.10
2019-06-26T13:29:55.439Z,19.90
2019-06-26T13:30:55.405Z,18.70
2019-06-26T13:32:59.434Z,25.40
2019-06-26T13:33:59.455Z,22.20
2019-06-26T13:36:03.507Z,21.00
2019-06-26T13:37:06.490Z,25.40
2019-06-26T13:39:07.525Z,25.20
2019-06-26T13:40:07.500Z,21.10
2019-06-26T13:42:11.533Z,21.90
2019-06-26T13:43:11.460Z,20.30
2019-06-26T13:45:15.515Z,19.70
2019-06-26T13:46:15.479Z,22.80
2019-06-26T13:48:19.514Z,21.10
2019-06-26T13:49:19.538Z,22.40
2019-06-26T13:51:23.586Z,19.60
2019-06-26T13:52:23.507Z,19.00
2019-06-26T13:54:27.597Z,21.00
2019-06-26T13:55:27.528Z,18.90